createdAt,value
2023-03-22T00:04:16.176Z,99984.63
2023-03-22T00:09:18.298Z,99975.28
2023-03-22T00:14:19.726Z,99965.72
2023-03-22T00:19:21.183Z,99962.31
2023-03-22T00:24:22.988Z,99960.06
2023-03-22T00:29:24.472Z,99952.22
2023-03-22T00:34:27.115Z,99943.78
2023-03-22T00:39:28.591Z,99941.09
2023-03-22T00:44:30.156Z,99925.03
2023-03-22T00:49:31.617Z,99925.53
2023-03-22T00:54:33.117Z,99913.75
2023-03-22T00:59:38.450Z,99908.13
2023-03-22T01:04:45.769Z,99903.47
2023-03-22T01:09:51.948Z,99902.09
2023-03-22T01:14:53.370Z,99907.84
2023-03-22T01:19:54.805Z,99901.72
2023-03-22T01:24:56.309Z,99890.44
2023-03-22T01:29:57.755Z,99879.44
2023-03-22T01:34:59.224Z,99876.34
2023-03-22T01:40:00.728Z,99873.53
2023-03-22T01:45:14.330Z,99876.97
2023-03-22T01:50:17.361Z,99866.44
2023-03-22T01:55:22.655Z,99868.50
2023-03-22T02:00:24.174Z,99861.28
2023-03-22T02:05:26.416Z,99864.44
2023-03-22T02:10:28.562Z,99852.41
2023-03-22T02:15:33.882Z,99852.53
2023-03-22T02:20:53.005Z,99842.00
2023-03-22T02:25:57.229Z,99840.88
2023-03-22T02:31:27.868Z,99846.06
2023-03-22T02:36:40.224Z,99841.06
2023-03-22T02:41:47.808Z,99856.09
2023-03-22T02:47:34.278Z,99849.50
2023-03-22T02:52:54.420Z,99844.38
2023-03-22T02:57:58.356Z,99841.16
2023-03-22T03:03:11.342Z,99841.69
2023-03-22T03:08:15.454Z,99842.16
2023-03-22T03:13:19.135Z,99849.25
2023-03-22T03:18:41.277Z,99856.00
2023-03-22T03:23:56.043Z,99850.88
2023-03-22T03:29:00.724Z,99852.97
2023-03-22T03:34:19.373Z,99865.00
2023-03-22T03:39:24.126Z,99873.41
2023-03-22T03:44:26.386Z,99882.97
2023-03-22T03:49:28.077Z,99877.44
2023-03-22T03:54:29.514Z,99882.34
2023-03-22T03:59:31.122Z,99889.69
2023-03-22T04:04:34.793Z,99890.19
2023-03-22T04:09:38.442Z,99890.19
2023-03-22T04:14:39.890Z,99888.47
2023-03-22T04:19:42.221Z,99879.94
2023-03-22T04:24:49.975Z,99876.69
2023-03-22T04:29:52.329Z,99866.91
2023-03-22T04:34:53.748Z,99871.59
2023-03-22T04:39:55.212Z,99867.78
2023-03-22T04:44:56.641Z,99857.50
2023-03-22T04:49:58.080Z,99855.41
2023-03-22T04:54:59.516Z,99846.56
2023-03-22T05:00:01.005Z,99831.13
2023-03-22T05:05:02.462Z,99834.81
2023-03-22T05:10:04.193Z,99837.75
2023-03-22T05:15:06.685Z,99848.16
2023-03-22T05:20:10.219Z,99840.94
2023-03-22T05:25:11.740Z,99851.72
2023-03-22T05:30:13.414Z,99845.97
2023-03-22T05:35:14.953Z,99847.31
2023-03-22T05:40:16.959Z,99861.53
2023-03-22T05:45:18.866Z,99873.06
2023-03-22T05:50:22.832Z,99859.81
2023-03-22T05:55:24.755Z,99859.34
2023-03-22T06:00:27.075Z,99857.72
2023-03-22T06:05:30.306Z,99855.00
2023-03-22T06:10:31.731Z,99851.53
2023-03-22T06:15:33.186Z,99850.44
2023-03-22T06:20:35.371Z,99855.84
2023-03-22T06:25:37.156Z,99853.81
2023-03-22T06:30:39.047Z,99859.47
2023-03-22T06:35:40.898Z,99849.84
2023-03-22T06:40:42.515Z,99855.47
2023-03-22T06:45:46.925Z,99858.84
2023-03-22T06:50:48.461Z,99862.78
2023-03-22T06:55:49.931Z,99870.50
2023-03-22T07:00:52.099Z,99873.75
2023-03-22T07:05:53.577Z,99864.56
2023-03-22T07:10:55.016Z,99859.72
2023-03-22T07:15:57.775Z,99872.78
2023-03-22T07:20:59.874Z,99870.34
2023-03-22T07:26:01.545Z,99873.03
2023-03-22T07:31:05.947Z,99860.94
2023-03-22T07:36:09.004Z,99856.84
2023-03-22T07:41:10.551Z,99852.91
2023-03-22T07:46:12.261Z,99854.06
2023-03-22T07:51:13.722Z,99848.38
2023-03-22T07:56:15.392Z,99850.09
2023-03-22T08:01:16.796Z,99853.06
2023-03-22T08:06:21.544Z,99836.66
2023-03-22T08:11:23.072Z,99843.13
2023-03-22T08:16:24.607Z,99845.63
2023-03-22T08:21:26.196Z,99842.53
2023-03-22T08:26:27.837Z,99839.19
2023-03-22T08:31:29.563Z,99836.94
2023-03-22T08:36:31.098Z,99837.41
2023-03-22T08:41:32.528Z,99835.41
2023-03-22T08:46:34.083Z,99842.53
2023-03-22T08:51:35.917Z,99829.53
2023-03-22T08:56:37.916Z,99827.66
2023-03-22T09:01:39.474Z,99827.13
2023-03-22T09:06:44.202Z,99829.84
2023-03-22T09:11:46.272Z,99819.41
2023-03-22T09:16:47.884Z,99810.44
2023-03-22T09:21:50.008Z,99812.41
2023-03-22T09:26:51.578Z,99804.16
2023-03-22T09:31:53.591Z,99804.78
2023-03-22T09:36:56.735Z,99803.91
2023-03-22T09:42:04.093Z,99800.13
2023-03-22T09:47:08.254Z,99801.22
2023-03-22T09:52:14.964Z,99805.50
2023-03-22T09:57:29.866Z,99789.63
2023-03-22T10:02:49.225Z,99785.06
2023-03-22T10:07:59.964Z,99784.66
2023-03-22T10:13:10.251Z,99785.06
2023-03-22T10:18:18.049Z,99784.09
2023-03-22T10:23:46.694Z,99787.00
2023-03-22T10:28:59.337Z,99782.06
2023-03-22T10:34:23.907Z,99785.44
2023-03-22T10:39:29.348Z,99788.50
2023-03-22T10:44:37.042Z,99775.53
2023-03-22T10:49:54.758Z,99781.06
2023-03-22T10:55:01.243Z,99782.59
2023-03-22T11:00:11.375Z,99778.53
2023-03-22T11:05:25.310Z,99774.59
2023-03-22T11:10:29.560Z,99761.47
2023-03-22T11:15:33.247Z,99740.50
2023-03-22T11:20:35.058Z,99752.63
2023-03-22T11:25:43.878Z,99751.78
2023-03-22T11:31:06.216Z,99728.25
2023-03-22T11:36:18.216Z,99724.81
2023-03-22T11:41:36.779Z,99717.31
2023-03-22T11:46:39.116Z,99707.81
2023-03-22T11:51:40.984Z,99709.50
2023-03-22T11:56:45.539Z,99691.72
2023-03-22T12:01:53.247Z,99688.66
2023-03-22T12:06:58.261Z,99675.19
2023-03-22T12:12:01.721Z,99674.31
2023-03-22T12:17:11.176Z,99682.66
2023-03-22T12:22:24.729Z,99673.25
2023-03-22T12:27:38.727Z,99667.72
2023-03-22T12:32:54.299Z,99671.84
2023-03-22T12:37:58.314Z,99657.53
2023-03-22T12:43:17.918Z,99663.94
2023-03-22T12:48:28.059Z,99651.63
2023-03-22T12:53:42.656Z,99643.97
2023-03-22T12:58:49.845Z,99630.41
2023-03-22T13:03:53.866Z,99631.25
2023-03-22T13:09:16.234Z,99624.84
2023-03-22T13:14:52.740Z,99631.25
2023-03-22T13:20:20.078Z,99623.50
2023-03-22T13:25:29.832Z,99623.84
2023-03-22T13:30:49.417Z,99614.38
2023-03-22T13:35:54.985Z,99614.03
2023-03-22T13:41:14.783Z,99620.16
2023-03-22T13:46:22.222Z,99609.72
2023-03-22T13:51:32.139Z,99597.03
2023-03-22T13:56:42.434Z,99588.75
2023-03-22T14:01:50.177Z,99592.50
2023-03-22T14:06:57.344Z,99591.13
2023-03-22T14:12:03.368Z,99582.81
2023-03-22T14:17:17.029Z,99578.25
